Aérodrome :
LOGIN :

S'inscrire | Disclaimer

   EN    FR    IT 

 










Légende :    VFR   VFR Marginal   IFR   IFR Intensif   IFR Très Intensif
Visi : 
Plafond : 
>= 8 km
>= 3000ft
5 à 8 km
1000 à 3000 ft
1500m à 5 km
500 à 1000 ft
800 à 1500m
200 à 500 ft
< 800m
< 200 ft
Symboles :   Orages  Brouillard  Fortes neiges  Fortes précipitations  Vent > 20 kt
SIGMETs :   Divers  Orages  Givrage  Turbulence  Onde Orograph.  Cendres Volcan.







- Altitude de l'aérodrome : 909 ft
- Code IATA : KSF


EDVK - Kassel Calden

DERNIER METAR :
  • 211720Z 15002KT 9999 BKN039 08/06 Q1026

METARs EXPIRÉS :
  • 211650Z VRB01KT 9999 FEW028 BKN042 09/06 Q1026
  • 211620Z 28004KT 9999 FEW028 OVC043 09/05 Q1026
  • 211550Z 29005KT 9999 FEW013 OVC040 09/05 Q1026
  • 211520Z 30008KT 9000 -RA FEW033 BKN042 OVC051 10/05 Q1026
  • 211450Z 30014KT 9999 SCT033 OVC057 10/04 Q1025

TAF TAF EDVK
Valide du 21 à 18h jusqu'au 22 à 03h UTC


211700Z 2118/2203 27007KT 9999 SCT035
PROB30
TEMPO 2118/2122 4500 -SHRA BKN030TCU
Pas de NOTAMs connus pour ce terrain.



MET'MAP, la Météo Aéronautique d'un coup d'oeil ! - Copyright ORBIFLY Décembre 2007 - Disclaimer

ORBIFLY MET'MAP TEAM :

Programmation & Développement : Alexandra Zaïnal
Conception & Développement : Baudouin d'Aumeries
Co-Programmation & Développement : Marc-Olivier Méhu
Soutien technique & logistique : Manuel Goepfert

Contact : metmap@orbifly.com




SOURCES & CREDITS :

   NOAA